sensor_id;sensor_type;location;lat;lon;timestamp;P1;durP1;ratioP1;P2;durP2;ratioP2
3415;SDS011;1721;51.238;9.562;2023-04-24T00:01:21;3.50;;;0.97;;
3415;SDS011;1721;51.238;9.562;2023-04-24T00:03:47;3.20;;;0.97;;
3415;SDS011;1721;51.238;9.562;2023-04-24T00:06:12;9.77;;;0.90;;
3415;SDS011;1721;51.238;9.562;2023-04-24T00:08:38;5.07;;;1.33;;
3415;SDS011;1721;51.238;9.562;2023-04-24T00:11:03;2.63;;;0.87;;
3415;SDS011;1721;51.238;9.562;2023-04-24T00:13:29;3.57;;;1.10;;
3415;SDS011;1721;51.238;9.562;2023-04-24T00:15:55;3.10;;;1.00;;
3415;SDS011;1721;51.238;9.562;2023-04-24T00:18:21;2.60;;;1.00;;
3415;SDS011;1721;51.238;9.562;2023-04-24T00:20:47;3.40;;;1.33;;
3415;SDS011;1721;51.238;9.562;2023-04-24T00:23:12;3.63;;;0.90;;
3415;SDS011;1721;51.238;9.562;2023-04-24T00:25:38;2.87;;;1.07;;
3415;SDS011;1721;51.238;9.562;2023-04-24T00:28:05;4.05;;;1.05;;
3415;SDS011;1721;51.238;9.562;2023-04-24T00:30:30;4.10;;;1.00;;
3415;SDS011;1721;51.238;9.562;2023-04-24T00:32:56;3.90;;;0.70;;
3415;SDS011;1721;51.238;9.562;2023-04-24T00:35:22;7.47;;;1.00;;
3415;SDS011;1721;51.238;9.562;2023-04-24T00:37:48;6.73;;;1.00;;
3415;SDS011;1721;51.238;9.562;2023-04-24T00:40:13;2.67;;;0.80;;
3415;SDS011;1721;51.238;9.562;2023-04-24T00:42:39;2.60;;;0.70;;
3415;SDS011;1721;51.238;9.562;2023-04-24T00:45:05;3.72;;;0.80;;
3415;SDS011;1721;51.238;9.562;2023-04-24T00:47:32;2.40;;;0.70;;
3415;SDS011;1721;51.238;9.562;2023-04-24T00:49:58;2.70;;;0.80;;
3415;SDS011;1721;51.238;9.562;2023-04-24T00:52:29;3.58;;;1.08;;
3415;SDS011;1721;51.238;9.562;2023-04-24T00:54:56;2.67;;;0.90;;
3415;SDS011;1721;51.238;9.562;2023-04-24T00:57:22;2.50;;;0.60;;
3415;SDS011;1721;51.238;9.562;2023-04-24T00:59:48;3.38;;;0.90;;
3415;SDS011;1721;51.238;9.562;2023-04-24T01:02:14;2.50;;;0.77;;
3415;SDS011;1721;51.238;9.562;2023-04-24T01:04:40;6.27;;;0.80;;
3415;SDS011;1721;51.238;9.562;2023-04-24T01:07:06;2.95;;;0.95;;
3415;SDS011;1721;51.238;9.562;2023-04-24T01:09:35;3.53;;;0.90;;
3415;SDS011;1721;51.238;9.562;2023-04-24T01:12:06;5.65;;;1.20;;
3415;SDS011;1721;51.238;9.562;2023-04-24T01:14:32;2.53;;;0.77;;
3415;SDS011;1721;51.238;9.562;2023-04-24T01:16:58;3.95;;;0.90;;
3415;SDS011;1721;51.238;9.562;2023-04-24T01:19:24;2.67;;;0.80;;
3415;SDS011;1721;51.238;9.562;2023-04-24T01:21:50;2.90;;;0.80;;
3415;SDS011;1721;51.238;9.562;2023-04-24T01:24:18;2.90;;;0.90;;
3415;SDS011;1721;51.238;9.562;2023-04-24T01:26:44;3.20;;;1.10;;
3415;SDS011;1721;51.238;9.562;2023-04-24T01:29:10;3.92;;;0.90;;
3415;SDS011;1721;51.238;9.562;2023-04-24T01:31:36;4.00;;;1.00;;
3415;SDS011;1721;51.238;9.562;2023-04-24T01:34:02;2.80;;;0.80;;
3415;SDS011;1721;51.238;9.562;2023-04-24T01:36:28;2.70;;;0.83;;
3415;SDS011;1721;51.238;9.562;2023-04-24T01:38:55;4.45;;;0.85;;
3415;SDS011;1721;51.238;9.562;2023-04-24T01:41:20;2.53;;;0.80;;
3415;SDS011;1721;51.238;9.562;2023-04-24T01:43:46;3.67;;;0.90;;
3415;SDS011;1721;51.238;9.562;2023-04-24T01:46:13;2.90;;;0.88;;
3415;SDS011;1721;51.238;9.562;2023-04-24T01:48:39;3.20;;;1.00;;
3415;SDS011;1721;51.238;9.562;2023-04-24T01:51:06;2.72;;;0.98;;
3415;SDS011;1721;51.238;9.562;2023-04-24T01:53:31;6.03;;;0.90;;
3415;SDS011;1721;51.238;9.562;2023-04-24T01:55:57;4.93;;;1.20;;
3415;SDS011;1721;51.238;9.562;2023-04-24T01:58:23;3.30;;;0.90;;
3415;SDS011;1721;51.238;9.562;2023-04-24T02:00:49;3.50;;;1.00;;
3415;SDS011;1721;51.238;9.562;2023-04-24T02:03:14;3.47;;;0.97;;
3415;SDS011;1721;51.238;9.562;2023-04-24T02:05:40;4.40;;;1.03;;
3415;SDS011;1721;51.238;9.562;2023-04-24T02:08:08;4.90;;;1.40;;
3415;SDS011;1721;51.238;9.562;2023-04-24T02:10:33;3.03;;;1.07;;
3415;SDS011;1721;51.238;9.562;2023-04-24T02:12:59;10.37;;;1.53;;
3415;SDS011;1721;51.238;9.562;2023-04-24T02:15:25;5.22;;;1.23;;
3415;SDS011;1721;51.238;9.562;2023-04-24T02:17:51;3.53;;;1.33;;
3415;SDS011;1721;51.238;9.562;2023-04-24T02:20:16;7.00;;;1.27;;
3415;SDS011;1721;51.238;9.562;2023-04-24T02:22:42;4.10;;;1.73;;
3415;SDS011;1721;51.238;9.562;2023-04-24T02:25:08;3.00;;;1.20;;
3415;SDS011;1721;51.238;9.562;2023-04-24T02:27:34;5.30;;;1.50;;
3415;SDS011;1721;51.238;9.562;2023-04-24T02:29:59;3.53;;;1.53;;
3415;SDS011;1721;51.238;9.562;2023-04-24T02:32:25;3.13;;;1.17;;
3415;SDS011;1721;51.238;9.562;2023-04-24T02:34:51;3.93;;;1.10;;
3415;SDS011;1721;51.238;9.562;2023-04-24T02:37:16;5.90;;;1.10;;
3415;SDS011;1721;51.238;9.562;2023-04-24T02:39:42;4.70;;;0.93;;
3415;SDS011;1721;51.238;9.562;2023-04-24T02:42:07;3.30;;;1.07;;
3415;SDS011;1721;51.238;9.562;2023-04-24T02:44:33;5.97;;;2.23;;
3415;SDS011;1721;51.238;9.562;2023-04-24T02:46:59;3.23;;;0.93;;
3415;SDS011;1721;51.238;9.562;2023-04-24T02:49:25;4.30;;;1.30;;
3415;SDS011;1721;51.238;9.562;2023-04-24T02:51:50;3.75;;;1.23;;
3415;SDS011;1721;51.238;9.562;2023-04-24T02:54:16;6.20;;;1.10;;
3415;SDS011;1721;51.238;9.562;2023-04-24T02:56:42;3.20;;;1.10;;
3415;SDS011;1721;51.238;9.562;2023-04-24T02:59:07;4.80;;;1.10;;
3415;SDS011;1721;51.238;9.562;2023-04-24T03:01:33;3.13;;;1.00;;
3415;SDS011;1721;51.238;9.562;2023-04-24T03:03:58;2.70;;;0.90;;
3415;SDS011;1721;51.238;9.562;2023-04-24T03:06:24;3.70;;;0.90;;
3415;SDS011;1721;51.238;9.562;2023-04-24T03:08:49;2.80;;;1.00;;
3415;SDS011;1721;51.238;9.562;2023-04-24T03:11:15;5.43;;;1.20;;
3415;SDS011;1721;51.238;9.562;2023-04-24T03:13:40;3.63;;;1.17;;
3415;SDS011;1721;51.238;9.562;2023-04-24T03:16:06;2.90;;;1.03;;
3415;SDS011;1721;51.238;9.562;2023-04-24T03:18:31;3.37;;;1.07;;
3415;SDS011;1721;51.238;9.562;2023-04-24T03:20:57;2.80;;;1.00;;
3415;SDS011;1721;51.238;9.562;2023-04-24T03:23:22;3.00;;;1.20;;
3415;SDS011;1721;51.238;9.562;2023-04-24T03:25:48;2.90;;;1.07;;
3415;SDS011;1721;51.238;9.562;2023-04-24T03:28:13;5.43;;;1.20;;
3415;SDS011;1721;51.238;9.562;2023-04-24T03:30:39;3.33;;;1.30;;
3415;SDS011;1721;51.238;9.562;2023-04-24T03:33:05;3.37;;;1.20;;
3415;SDS011;1721;51.238;9.562;2023-04-24T03:35:31;3.38;;;1.30;;
3415;SDS011;1721;51.238;9.562;2023-04-24T03:37:57;3.83;;;1.47;;
3415;SDS011;1721;51.238;9.562;2023-04-24T03:40:22;4.93;;;1.07;;
3415;SDS011;1721;51.238;9.562;2023-04-24T03:42:48;3.07;;;1.10;;
3415;SDS011;1721;51.238;9.562;2023-04-24T03:45:13;3.93;;;1.23;;
3415;SDS011;1721;51.238;9.562;2023-04-24T03:47:39;4.20;;;1.40;;
3415;SDS011;1721;51.238;9.562;2023-04-24T03:50:05;2.90;;;0.90;;
3415;SDS011;1721;51.238;9.562;2023-04-24T03:52:31;2.80;;;1.00;;
3415;SDS011;1721;51.238;9.562;2023-04-24T03:54:56;4.17;;;1.23;;
3415;SDS011;1721;51.238;9.562;2023-04-24T03:57:22;5.23;;;1.40;;
3415;SDS011;1721;51.238;9.562;2023-04-24T03:59:47;3.10;;;1.03;;
3415;SDS011;1721;51.238;9.562;2023-04-24T04:02:13;4.67;;;1.40;;
3415;SDS011;1721;51.238;9.562;2023-04-24T04:04:38;3.37;;;1.30;;
3415;SDS011;1721;51.238;9.562;2023-04-24T04:07:04;4.20;;;1.17;;
3415;SDS011;1721;51.238;9.562;2023-04-24T04:09:30;3.40;;;1.20;;
3415;SDS011;1721;51.238;9.562;2023-04-24T04:11:56;5.53;;;1.20;;
3415;SDS011;1721;51.238;9.562;2023-04-24T04:14:22;3.23;;;1.03;;
3415;SDS011;1721;51.238;9.562;2023-04-24T04:16:48;6.05;;;1.40;;
3415;SDS011;1721;51.238;9.562;2023-04-24T04:19:13;3.30;;;1.20;;
3415;SDS011;1721;51.238;9.562;2023-04-24T04:21:39;3.70;;;1.40;;
3415;SDS011;1721;51.238;9.562;2023-04-24T04:24:05;3.03;;;1.13;;
3415;SDS011;1721;51.238;9.562;2023-04-24T04:26:32;3.42;;;1.02;;
3415;SDS011;1721;51.238;9.562;2023-04-24T04:28:58;3.60;;;1.00;;
3415;SDS011;1721;51.238;9.562;2023-04-24T04:31:25;4.85;;;1.35;;
3415;SDS011;1721;51.238;9.562;2023-04-24T04:33:51;3.20;;;1.10;;
3415;SDS011;1721;51.238;9.562;2023-04-24T04:36:16;2.90;;;1.00;;
3415;SDS011;1721;51.238;9.562;2023-04-24T04:38:42;2.30;;;0.80;;
3415;SDS011;1721;51.238;9.562;2023-04-24T04:41:09;3.75;;;1.00;;
3415;SDS011;1721;51.238;9.562;2023-04-24T04:43:35;2.85;;;1.08;;
3415;SDS011;1721;51.238;9.562;2023-04-24T04:46:01;2.80;;;1.00;;
3415;SDS011;1721;51.238;9.562;2023-04-24T04:48:28;3.70;;;1.00;;
3415;SDS011;1721;51.238;9.562;2023-04-24T04:50:56;3.05;;;0.90;;
3415;SDS011;1721;51.238;9.562;2023-04-24T04:53:22;2.73;;;1.13;;
3415;SDS011;1721;51.238;9.562;2023-04-24T04:55:47;3.63;;;0.93;;
3415;SDS011;1721;51.238;9.562;2023-04-24T04:58:13;3.87;;;1.10;;
3415;SDS011;1721;51.238;9.562;2023-04-24T05:00:38;2.70;;;0.90;;
3415;SDS011;1721;51.238;9.562;2023-04-24T05:03:04;3.60;;;1.30;;
3415;SDS011;1721;51.238;9.562;2023-04-24T05:05:30;5.40;;;1.40;;
3415;SDS011;1721;51.238;9.562;2023-04-24T05:07:55;3.20;;;1.37;;
3415;SDS011;1721;51.238;9.562;2023-04-24T05:10:21;2.50;;;0.90;;
3415;SDS011;1721;51.238;9.562;2023-04-24T05:12:46;3.03;;;1.20;;
3415;SDS011;1721;51.238;9.562;2023-04-24T05:15:14;3.80;;;1.35;;
3415;SDS011;1721;51.238;9.562;2023-04-24T05:17:40;4.10;;;1.50;;
3415;SDS011;1721;51.238;9.562;2023-04-24T05:20:05;5.30;;;1.37;;
3415;SDS011;1721;51.238;9.562;2023-04-24T05:22:32;3.47;;;1.17;;
3415;SDS011;1721;51.238;9.562;2023-04-24T05:24:57;3.80;;;1.33;;
3415;SDS011;1721;51.238;9.562;2023-04-24T05:27:23;5.23;;;1.27;;
3415;SDS011;1721;51.238;9.562;2023-04-24T05:29:49;4.45;;;1.30;;
3415;SDS011;1721;51.238;9.562;2023-04-24T05:32:14;3.10;;;1.13;;
3415;SDS011;1721;51.238;9.562;2023-04-24T05:34:40;3.27;;;1.27;;
3415;SDS011;1721;51.238;9.562;2023-04-24T05:37:06;4.03;;;1.37;;
3415;SDS011;1721;51.238;9.562;2023-04-24T05:39:33;3.13;;;1.20;;
3415;SDS011;1721;51.238;9.562;2023-04-24T05:42:00;3.47;;;1.50;;
3415;SDS011;1721;51.238;9.562;2023-04-24T05:44:26;3.35;;;1.50;;
3415;SDS011;1721;51.238;9.562;2023-04-24T05:46:51;6.67;;;1.73;;
3415;SDS011;1721;51.238;9.562;2023-04-24T05:49:17;7.07;;;1.43;;
3415;SDS011;1721;51.238;9.562;2023-04-24T05:51:43;6.03;;;1.80;;
3415;SDS011;1721;51.238;9.562;2023-04-24T05:54:08;3.53;;;1.50;;
3415;SDS011;1721;51.238;9.562;2023-04-24T05:56:35;6.28;;;1.65;;
3415;SDS011;1721;51.238;9.562;2023-04-24T05:59:01;4.93;;;2.20;;
3415;SDS011;1721;51.238;9.562;2023-04-24T06:01:26;5.40;;;2.20;;
3415;SDS011;1721;51.238;9.562;2023-04-24T06:03:52;4.87;;;1.90;;
3415;SDS011;1721;51.238;9.562;2023-04-24T06:06:18;4.18;;;1.90;;
3415;SDS011;1721;51.238;9.562;2023-04-24T06:08:44;5.75;;;2.95;;
3415;SDS011;1721;51.238;9.562;2023-04-24T06:11:10;6.85;;;2.22;;
3415;SDS011;1721;51.238;9.562;2023-04-24T06:13:36;5.10;;;2.20;;
3415;SDS011;1721;51.238;9.562;2023-04-24T06:16:01;5.53;;;2.33;;
3415;SDS011;1721;51.238;9.562;2023-04-24T06:18:27;4.53;;;2.43;;
3415;SDS011;1721;51.238;9.562;2023-04-24T06:20:52;4.73;;;2.40;;
3415;SDS011;1721;51.238;9.562;2023-04-24T06:23:18;5.67;;;2.43;;
3415;SDS011;1721;51.238;9.562;2023-04-24T06:25:43;5.20;;;2.27;;
3415;SDS011;1721;51.238;9.562;2023-04-24T06:28:09;5.70;;;1.97;;
3415;SDS011;1721;51.238;9.562;2023-04-24T06:30:34;5.43;;;2.00;;
3415;SDS011;1721;51.238;9.562;2023-04-24T06:33:00;3.83;;;1.90;;
3415;SDS011;1721;51.238;9.562;2023-04-24T06:35:26;5.40;;;2.40;;
3415;SDS011;1721;51.238;9.562;2023-04-24T06:37:51;4.23;;;2.07;;
3415;SDS011;1721;51.238;9.562;2023-04-24T06:40:17;4.27;;;1.60;;
3415;SDS011;1721;51.238;9.562;2023-04-24T06:42:43;3.63;;;1.45;;
3415;SDS011;1721;51.238;9.562;2023-04-24T06:45:09;4.00;;;1.60;;
3415;SDS011;1721;51.238;9.562;2023-04-24T06:47:35;4.00;;;1.60;;
3415;SDS011;1721;51.238;9.562;2023-04-24T06:50:01;3.90;;;1.40;;
3415;SDS011;1721;51.238;9.562;2023-04-24T06:52:26;3.93;;;1.70;;
3415;SDS011;1721;51.238;9.562;2023-04-24T06:54:52;6.20;;;1.70;;
3415;SDS011;1721;51.238;9.562;2023-04-24T06:57:17;4.17;;;2.03;;
3415;SDS011;1721;51.238;9.562;2023-04-24T06:59:44;5.25;;;1.70;;
3415;SDS011;1721;51.238;9.562;2023-04-24T07:02:10;6.37;;;2.00;;
3415;SDS011;1721;51.238;9.562;2023-04-24T07:04:35;4.53;;;2.43;;
3415;SDS011;1721;51.238;9.562;2023-04-24T07:07:01;6.33;;;2.80;;
3415;SDS011;1721;51.238;9.562;2023-04-24T07:09:27;6.20;;;2.57;;
3415;SDS011;1721;51.238;9.562;2023-04-24T07:11:53;4.50;;;2.20;;
3415;SDS011;1721;51.238;9.562;2023-04-24T07:14:20;10.98;;;2.53;;
3415;SDS011;1721;51.238;9.562;2023-04-24T07:16:46;6.20;;;2.83;;
3415;SDS011;1721;51.238;9.562;2023-04-24T07:19:12;6.97;;;2.53;;
3415;SDS011;1721;51.238;9.562;2023-04-24T07:21:38;5.93;;;2.40;;
3415;SDS011;1721;51.238;9.562;2023-04-24T07:24:03;4.23;;;1.83;;
3415;SDS011;1721;51.238;9.562;2023-04-24T07:26:29;5.17;;;2.23;;
3415;SDS011;1721;51.238;9.562;2023-04-24T07:28:55;6.32;;;2.25;;
3415;SDS011;1721;51.238;9.562;2023-04-24T07:31:21;6.23;;;2.60;;
3415;SDS011;1721;51.238;9.562;2023-04-24T07:33:47;4.70;;;2.20;;
3415;SDS011;1721;51.238;9.562;2023-04-24T07:36:13;6.57;;;2.30;;
3415;SDS011;1721;51.238;9.562;2023-04-24T07:38:42;5.93;;;2.42;;
3415;SDS011;1721;51.238;9.562;2023-04-24T07:41:07;5.40;;;2.53;;
3415;SDS011;1721;51.238;9.562;2023-04-24T07:43:33;5.37;;;2.70;;
3415;SDS011;1721;51.238;9.562;2023-04-24T07:45:59;4.70;;;2.37;;
3415;SDS011;1721;51.238;9.562;2023-04-24T07:48:24;6.03;;;2.63;;
3415;SDS011;1721;51.238;9.562;2023-04-24T07:50:51;6.25;;;2.60;;
3415;SDS011;1721;51.238;9.562;2023-04-24T07:53:17;5.85;;;2.72;;
3415;SDS011;1721;51.238;9.562;2023-04-24T07:55:42;5.37;;;2.47;;
3415;SDS011;1721;51.238;9.562;2023-04-24T07:58:08;6.20;;;2.80;;
3415;SDS011;1721;51.238;9.562;2023-04-24T08:00:34;5.60;;;2.30;;
3415;SDS011;1721;51.238;9.562;2023-04-24T08:02:59;5.97;;;2.87;;
3415;SDS011;1721;51.238;9.562;2023-04-24T08:05:25;4.93;;;2.30;;
3415;SDS011;1721;51.238;9.562;2023-04-24T08:07:52;7.90;;;2.60;;
3415;SDS011;1721;51.238;9.562;2023-04-24T08:10:18;7.40;;;2.80;;
3415;SDS011;1721;51.238;9.562;2023-04-24T08:12:43;7.43;;;3.10;;
3415;SDS011;1721;51.238;9.562;2023-04-24T08:15:09;7.20;;;2.70;;
3415;SDS011;1721;51.238;9.562;2023-04-24T08:17:35;6.63;;;3.33;;
3415;SDS011;1721;51.238;9.562;2023-04-24T08:20:01;8.57;;;2.80;;
3415;SDS011;1721;51.238;9.562;2023-04-24T08:22:28;6.57;;;2.95;;
3415;SDS011;1721;51.238;9.562;2023-04-24T08:24:54;6.50;;;2.83;;
3415;SDS011;1721;51.238;9.562;2023-04-24T08:27:21;10.32;;;3.20;;
3415;SDS011;1721;51.238;9.562;2023-04-24T08:29:46;6.20;;;2.90;;
3415;SDS011;1721;51.238;9.562;2023-04-24T08:32:12;5.40;;;2.60;;
3415;SDS011;1721;51.238;9.562;2023-04-24T08:34:37;6.37;;;2.57;;
3415;SDS011;1721;51.238;9.562;2023-04-24T08:37:03;7.93;;;2.93;;
3415;SDS011;1721;51.238;9.562;2023-04-24T08:39:28;5.10;;;2.10;;
3415;SDS011;1721;51.238;9.562;2023-04-24T08:41:54;6.07;;;2.73;;
3415;SDS011;1721;51.238;9.562;2023-04-24T08:44:20;6.15;;;2.75;;
3415;SDS011;1721;51.238;9.562;2023-04-24T08:46:47;7.20;;;2.73;;
3415;SDS011;1721;51.238;9.562;2023-04-24T08:49:14;6.97;;;2.78;;
3415;SDS011;1721;51.238;9.562;2023-04-24T08:51:43;7.70;;;2.97;;
3415;SDS011;1721;51.238;9.562;2023-04-24T08:54:10;6.10;;;2.60;;
3415;SDS011;1721;51.238;9.562;2023-04-24T08:56:37;6.60;;;2.63;;
3415;SDS011;1721;51.238;9.562;2023-04-24T08:59:04;18.05;;;2.10;;
3415;SDS011;1721;51.238;9.562;2023-04-24T09:01:33;8.02;;;2.70;;
3415;SDS011;1721;51.238;9.562;2023-04-24T09:04:02;5.68;;;2.70;;
3415;SDS011;1721;51.238;9.562;2023-04-24T09:06:28;6.20;;;2.90;;
3415;SDS011;1721;51.238;9.562;2023-04-24T09:08:55;7.90;;;2.20;;
3415;SDS011;1721;51.238;9.562;2023-04-24T09:11:25;6.57;;;2.83;;
3415;SDS011;1721;51.238;9.562;2023-04-24T09:13:51;6.80;;;2.10;;
3415;SDS011;1721;51.238;9.562;2023-04-24T09:16:17;9.30;;;2.93;;
3415;SDS011;1721;51.238;9.562;2023-04-24T09:18:44;5.47;;;2.47;;
3415;SDS011;1721;51.238;9.562;2023-04-24T09:21:09;5.17;;;2.60;;
3415;SDS011;1721;51.238;9.562;2023-04-24T09:23:35;5.47;;;2.50;;
3415;SDS011;1721;51.238;9.562;2023-04-24T09:26:02;5.67;;;2.80;;
3415;SDS011;1721;51.238;9.562;2023-04-24T09:28:31;5.80;;;2.20;;
3415;SDS011;1721;51.238;9.562;2023-04-24T09:31:08;9.80;;;2.80;;
3415;SDS011;1721;51.238;9.562;2023-04-24T09:33:39;5.30;;;2.30;;
3415;SDS011;1721;51.238;9.562;2023-04-24T09:36:05;5.70;;;2.60;;
3415;SDS011;1721;51.238;9.562;2023-04-24T09:38:37;5.43;;;2.97;;
3415;SDS011;1721;51.238;9.562;2023-04-24T09:41:04;5.45;;;2.50;;
3415;SDS011;1721;51.238;9.562;2023-04-24T09:43:34;7.55;;;2.40;;
3415;SDS011;1721;51.238;9.562;2023-04-24T09:46:04;7.70;;;3.00;;
3415;SDS011;1721;51.238;9.562;2023-04-24T09:48:32;4.63;;;2.30;;
3415;SDS011;1721;51.238;9.562;2023-04-24T09:51:00;7.10;;;2.65;;
3415;SDS011;1721;51.238;9.562;2023-04-24T09:53:26;9.43;;;2.33;;
3415;SDS011;1721;51.238;9.562;2023-04-24T09:55:53;4.93;;;2.35;;
3415;SDS011;1721;51.238;9.562;2023-04-24T09:58:25;7.33;;;3.30;;
3415;SDS011;1721;51.238;9.562;2023-04-24T10:00:54;6.03;;;2.95;;
3415;SDS011;1721;51.238;9.562;2023-04-24T10:03:23;5.38;;;1.90;;
3415;SDS011;1721;51.238;9.562;2023-04-24T10:05:51;5.22;;;2.47;;
3415;SDS011;1721;51.238;9.562;2023-04-24T10:08:17;4.47;;;1.90;;
3415;SDS011;1721;51.238;9.562;2023-04-24T10:10:44;4.57;;;2.08;;
3415;SDS011;1721;51.238;9.562;2023-04-24T10:13:13;4.55;;;1.77;;
3415;SDS011;1721;51.238;9.562;2023-04-24T10:15:40;4.13;;;1.65;;
3415;SDS011;1721;51.238;9.562;2023-04-24T10:18:07;9.50;;;2.30;;
3415;SDS011;1721;51.238;9.562;2023-04-24T10:20:35;4.95;;;2.20;;
3415;SDS011;1721;51.238;9.562;2023-04-24T10:23:02;6.70;;;1.55;;
3415;SDS011;1721;51.238;9.562;2023-04-24T10:25:31;4.40;;;1.73;;
3415;SDS011;1721;51.238;9.562;2023-04-24T10:28:01;4.10;;;1.52;;
3415;SDS011;1721;51.238;9.562;2023-04-24T10:30:32;4.72;;;1.70;;
3415;SDS011;1721;51.238;9.562;2023-04-24T10:33:04;4.90;;;2.20;;
3415;SDS011;1721;51.238;9.562;2023-04-24T10:35:35;6.97;;;2.45;;
3415;SDS011;1721;51.238;9.562;2023-04-24T10:40:32;3.50;;;1.40;;
3415;SDS011;1721;51.238;9.562;2023-04-24T10:43:01;4.78;;;2.00;;
3415;SDS011;1721;51.238;9.562;2023-04-24T10:45:31;6.18;;;2.05;;
3415;SDS011;1721;51.238;9.562;2023-04-24T10:47:57;4.37;;;1.53;;
3415;SDS011;1721;51.238;9.562;2023-04-24T10:50:45;5.60;;;2.20;;
3415;SDS011;1721;51.238;9.562;2023-04-24T10:53:18;5.50;;;1.90;;
3415;SDS011;1721;51.238;9.562;2023-04-24T10:55:47;18.50;;;1.83;;
3415;SDS011;1721;51.238;9.562;2023-04-24T10:58:21;4.30;;;1.60;;
3415;SDS011;1721;51.238;9.562;2023-04-24T11:00:57;4.35;;;1.85;;
3415;SDS011;1721;51.238;9.562;2023-04-24T11:03:28;5.20;;;2.20;;
3415;SDS011;1721;51.238;9.562;2023-04-24T11:05:55;5.22;;;2.60;;
3415;SDS011;1721;51.238;9.562;2023-04-24T11:08:36;3.60;;;1.50;;
3415;SDS011;1721;51.238;9.562;2023-04-24T11:11:03;3.63;;;1.10;;
3415;SDS011;1721;51.238;9.562;2023-04-24T11:16:31;3.92;;;1.38;;
3415;SDS011;1721;51.238;9.562;2023-04-24T11:19:26;3.78;;;1.90;;
3415;SDS011;1721;51.238;9.562;2023-04-24T11:29:42;5.05;;;2.03;;
3415;SDS011;1721;51.238;9.562;2023-04-24T11:32:38;5.53;;;1.70;;
3415;SDS011;1721;51.238;9.562;2023-04-24T11:37:40;3.38;;;1.15;;
3415;SDS011;1721;51.238;9.562;2023-04-24T11:40:12;3.35;;;1.15;;
3415;SDS011;1721;51.238;9.562;2023-04-24T11:42:41;2.70;;;0.90;;
3415;SDS011;1721;51.238;9.562;2023-04-24T11:45:09;4.47;;;0.70;;
3415;SDS011;1721;51.238;9.562;2023-04-24T11:47:47;4.80;;;0.73;;
3415;SDS011;1721;51.238;9.562;2023-04-24T11:50:14;2.33;;;0.70;;
3415;SDS011;1721;51.238;9.562;2023-04-24T11:52:42;3.03;;;0.60;;
3415;SDS011;1721;51.238;9.562;2023-04-24T11:57:44;2.00;;;0.50;;
3415;SDS011;1721;51.238;9.562;2023-04-24T12:00:17;2.10;;;0.60;;
3415;SDS011;1721;51.238;9.562;2023-04-24T12:02:47;4.57;;;0.50;;
3415;SDS011;1721;51.238;9.562;2023-04-24T12:07:46;2.13;;;0.57;;
3415;SDS011;1721;51.238;9.562;2023-04-24T12:10:11;2.20;;;0.60;;
3415;SDS011;1721;51.238;9.562;2023-04-24T12:12:37;1.90;;;0.50;;
3415;SDS011;1721;51.238;9.562;2023-04-24T12:15:06;2.33;;;0.60;;
3415;SDS011;1721;51.238;9.562;2023-04-24T12:17:33;2.00;;;0.50;;
3415;SDS011;1721;51.238;9.562;2023-04-24T12:20:00;2.10;;;0.50;;
3415;SDS011;1721;51.238;9.562;2023-04-24T12:22:28;2.20;;;0.60;;
3415;SDS011;1721;51.238;9.562;2023-04-24T12:25:09;10.02;;;1.00;;
3415;SDS011;1721;51.238;9.562;2023-04-24T12:27:36;2.58;;;0.60;;
3415;SDS011;1721;51.238;9.562;2023-04-24T12:30:03;2.10;;;0.60;;
3415;SDS011;1721;51.238;9.562;2023-04-24T12:32:30;2.60;;;0.63;;
3415;SDS011;1721;51.238;9.562;2023-04-24T12:34:57;2.00;;;0.60;;
3415;SDS011;1721;51.238;9.562;2023-04-24T12:37:23;2.30;;;0.60;;
3415;SDS011;1721;51.238;9.562;2023-04-24T12:42:32;2.30;;;0.70;;
3415;SDS011;1721;51.238;9.562;2023-04-24T12:44:59;2.10;;;0.60;;
3415;SDS011;1721;51.238;9.562;2023-04-24T12:47:26;2.15;;;0.60;;
3415;SDS011;1721;51.238;9.562;2023-04-24T12:49:53;3.63;;;0.60;;
3415;SDS011;1721;51.238;9.562;2023-04-24T12:52:20;2.60;;;0.77;;
3415;SDS011;1721;51.238;9.562;2023-04-24T12:54:46;2.15;;;0.60;;
3415;SDS011;1721;51.238;9.562;2023-04-24T12:57:12;2.40;;;0.67;;
3415;SDS011;1721;51.238;9.562;2023-04-24T12:59:37;2.40;;;0.70;;
3415;SDS011;1721;51.238;9.562;2023-04-24T13:02:04;2.50;;;0.70;;
3415;SDS011;1721;51.238;9.562;2023-04-24T13:04:30;2.10;;;0.60;;
3415;SDS011;1721;51.238;9.562;2023-04-24T13:06:55;2.60;;;0.60;;
3415;SDS011;1721;51.238;9.562;2023-04-24T13:09:21;2.30;;;0.60;;
3415;SDS011;1721;51.238;9.562;2023-04-24T13:11:47;2.27;;;0.60;;
3415;SDS011;1721;51.238;9.562;2023-04-24T13:14:12;2.40;;;0.70;;
3415;SDS011;1721;51.238;9.562;2023-04-24T13:16:38;2.80;;;0.70;;
3415;SDS011;1721;51.238;9.562;2023-04-24T13:19:03;2.40;;;0.70;;
3415;SDS011;1721;51.238;9.562;2023-04-24T13:21:29;2.73;;;0.60;;
3415;SDS011;1721;51.238;9.562;2023-04-24T13:23:55;2.70;;;0.70;;
3415;SDS011;1721;51.238;9.562;2023-04-24T13:26:21;2.07;;;0.60;;
3415;SDS011;1721;51.238;9.562;2023-04-24T13:28:46;2.40;;;0.70;;
3415;SDS011;1721;51.238;9.562;2023-04-24T13:31:12;2.30;;;0.70;;
3415;SDS011;1721;51.238;9.562;2023-04-24T13:33:38;2.20;;;0.60;;
3415;SDS011;1721;51.238;9.562;2023-04-24T13:36:05;2.10;;;0.60;;
3415;SDS011;1721;51.238;9.562;2023-04-24T13:38:31;2.20;;;0.60;;
3415;SDS011;1721;51.238;9.562;2023-04-24T13:40:56;2.50;;;0.60;;
3415;SDS011;1721;51.238;9.562;2023-04-24T13:43:22;2.33;;;0.60;;
3415;SDS011;1721;51.238;9.562;2023-04-24T13:45:47;2.70;;;0.70;;
3415;SDS011;1721;51.238;9.562;2023-04-24T13:48:13;2.10;;;0.53;;
3415;SDS011;1721;51.238;9.562;2023-04-24T13:50:40;2.33;;;0.65;;
3415;SDS011;1721;51.238;9.562;2023-04-24T13:53:06;2.20;;;0.60;;
3415;SDS011;1721;51.238;9.562;2023-04-24T13:55:32;2.17;;;0.60;;
3415;SDS011;1721;51.238;9.562;2023-04-24T13:57:58;2.20;;;0.60;;
3415;SDS011;1721;51.238;9.562;2023-04-24T14:00:23;2.60;;;0.70;;
3415;SDS011;1721;51.238;9.562;2023-04-24T14:02:49;2.20;;;0.60;;
3415;SDS011;1721;51.238;9.562;2023-04-24T14:05:15;2.20;;;0.60;;
3415;SDS011;1721;51.238;9.562;2023-04-24T14:07:41;2.20;;;0.70;;
3415;SDS011;1721;51.238;9.562;2023-04-24T14:10:07;2.20;;;0.60;;
3415;SDS011;1721;51.238;9.562;2023-04-24T14:12:33;2.20;;;0.60;;
3415;SDS011;1721;51.238;9.562;2023-04-24T14:14:58;2.40;;;0.70;;
3415;SDS011;1721;51.238;9.562;2023-04-24T14:17:24;2.30;;;0.70;;
3415;SDS011;1721;51.238;9.562;2023-04-24T14:19:50;2.07;;;0.60;;
3415;SDS011;1721;51.238;9.562;2023-04-24T14:22:17;2.40;;;0.70;;
3415;SDS011;1721;51.238;9.562;2023-04-24T14:24:42;2.50;;;0.70;;
3415;SDS011;1721;51.238;9.562;2023-04-24T14:27:08;2.23;;;0.70;;
3415;SDS011;1721;51.238;9.562;2023-04-24T14:29:33;2.37;;;0.60;;
3415;SDS011;1721;51.238;9.562;2023-04-24T14:31:59;2.47;;;0.80;;
3415;SDS011;1721;51.238;9.562;2023-04-24T14:34:24;2.50;;;0.70;;
3415;SDS011;1721;51.238;9.562;2023-04-24T14:36:50;4.27;;;0.90;;
3415;SDS011;1721;51.238;9.562;2023-04-24T14:39:15;3.30;;;1.40;;
3415;SDS011;1721;51.238;9.562;2023-04-24T14:41:41;2.83;;;0.90;;
3415;SDS011;1721;51.238;9.562;2023-04-24T14:44:06;2.80;;;0.93;;
3415;SDS011;1721;51.238;9.562;2023-04-24T14:46:32;3.43;;;1.70;;
3415;SDS011;1721;51.238;9.562;2023-04-24T14:48:58;3.00;;;1.00;;
3415;SDS011;1721;51.238;9.562;2023-04-24T14:51:23;3.07;;;1.17;;
3415;SDS011;1721;51.238;9.562;2023-04-24T14:53:50;3.72;;;1.13;;
3415;SDS011;1721;51.238;9.562;2023-04-24T14:56:15;5.73;;;1.17;;
3415;SDS011;1721;51.238;9.562;2023-04-24T14:58:41;3.30;;;1.33;;
3415;SDS011;1721;51.238;9.562;2023-04-24T15:01:06;7.17;;;1.90;;
3415;SDS011;1721;51.238;9.562;2023-04-24T15:03:32;5.30;;;1.80;;
3415;SDS011;1721;51.238;9.562;2023-04-24T15:05:57;5.13;;;1.50;;
3415;SDS011;1721;51.238;9.562;2023-04-24T15:08:23;4.40;;;1.67;;
3415;SDS011;1721;51.238;9.562;2023-04-24T15:10:49;4.30;;;1.50;;
3415;SDS011;1721;51.238;9.562;2023-04-24T15:13:14;5.07;;;1.70;;
3415;SDS011;1721;51.238;9.562;2023-04-24T15:15:40;4.27;;;1.70;;
3415;SDS011;1721;51.238;9.562;2023-04-24T15:18:07;5.40;;;1.43;;
3415;SDS011;1721;51.238;9.562;2023-04-24T15:20:35;9.48;;;1.95;;
3415;SDS011;1721;51.238;9.562;2023-04-24T15:23:01;5.63;;;1.60;;
3415;SDS011;1721;51.238;9.562;2023-04-24T15:25:27;5.80;;;2.00;;
3415;SDS011;1721;51.238;9.562;2023-04-24T15:27:52;4.17;;;1.60;;
3415;SDS011;1721;51.238;9.562;2023-04-24T15:30:18;4.40;;;1.80;;
3415;SDS011;1721;51.238;9.562;2023-04-24T15:32:44;6.03;;;2.17;;
3415;SDS011;1721;51.238;9.562;2023-04-24T15:35:09;11.70;;;3.07;;